Date,TemperatureHighF,TemperatureAvgF,TemperatureLowF,DewpointHighF,DewpointAvgF,DewpointLowF,HumidityHigh,HumidityAvg,HumidityLow,PressureMaxIn,PressureMinIn,WindSpeedMaxMPH,WindSpeedAvgMPH,GustSpeedMaxMPH,PrecipitationSumIn
2013-2-1,62.4,55.3,47.3,49.8,46.8,42.4,83,73,62,30.11,29.68,10,4,19,0.00
2013-2-2,61.0,56.4,51.1,50.6,46.2,36.2,81,69,54,29.68,29.20,20,12,34,0.04
2013-2-3,54.3,48.5,43.0,39.7,34.5,24.7,75,59,41,29.92,29.28,18,7,34,0.02
2013-2-4,55.8,45.9,36.7,36.3,27.6,18.5,73,50,24,30.10,29.91,14,4,20,0.00
2013-2-5,54.5,49.0,40.3,46.4,40.2,31.0,81,72,64,30.08,29.73,16,6,26,0.00
2013-2-6,55.6,50.5,42.8,46.2,38.7,25.5,84,65,33,29.74,29.44,26,8,38,0.12
2013-2-7,52.2,44.1,41.0,39.3,35.9,31.5,83,73,53,29.52,29.39,12,7,21,0.25
2013-2-8,51.1,44.2,39.7,34.4,29.8,23.8,76,58,41,29.70,29.52,16,8,27,0.00
2013-2-9,47.8,41.3,35.6,32.1,24.0,17.0,74,52,31,29.83,29.69,16,7,27,0.00
2013-2-10,47.5,37.6,31.5,24.1,19.6,8.2,66,50,21,29.90,29.81,10,4,16,0.00
2013-2-11,54.7,46.4,36.3,44.6,35.7,15.1,86,68,34,29.90,29.47,28,12,42,1.32
2013-2-12,55.8,48.0,42.8,43.6,40.1,37.1,85,75,51,29.64,29.49,9,3,17,0.01
2013-2-13,52.9,45.3,39.0,38.0,33.9,30.6,84,65,44,29.77,29.61,12,5,18,0.00
2013-2-14,56.3,45.2,36.7,34.9,32.1,28.7,77,62,38,29.94,29.77,9,5,14,0.00
2013-2-15,56.1,47.9,41.0,37.8,35.0,31.5,73,61,40,29.95,29.88,8,3,11,0.00
2013-2-16,58.3,46.8,39.6,40.2,35.6,32.0,77,66,38,30.00,29.92,12,3,16,0.00
2013-2-17,54.9,45.4,39.4,40.2,35.7,32.0,78,69,53,30.00,29.91,17,4,26,0.07
2013-2-18,52.3,44.4,39.0,38.8,35.7,33.0,85,72,55,29.94,29.87,12,4,20,0.00
2013-2-19,55.4,44.6,35.2,34.1,30.2,20.3,78,59,26,29.95,29.86,11,4,13,0.00
2013-2-20,54.3,45.1,35.4,36.5,32.3,26.8,74,62,44,29.94,29.83,8,3,12,0.00
2013-2-21,56.5,50.3,41.2,41.6,36.7,31.4,73,60,42,29.86,29.61,12,4,15,0.00
2013-2-22,64.8,51.5,49.3,54.0,43.6,41.6,81,74,64,29.61,29.38,21,5,108,0.06
2013-2-23,55.9,51.2,45.3,50.9,43.7,38.5,83,75,70,29.57,29.33,26,10,46,0.84
2013-2-24,50.2,47.2,39.9,40.8,36.5,27.9,79,67,45,29.87,29.57,18,8,27,0.07
2013-2-25,42.8,41.5,40.5,37.1,34.9,32.7,84,77,69,29.98,29.86,8,3,10,0.50
2013-2-26,42.4,42.4,42.4,36.4,36.4,36.4,79,79,79,30.07,29.96,3,3,4,0.50
2013-2-27,50.2,43.4,42.4,36.4,35.9,32.8,79,75,52,30.15,30.05,6,3,8,0.50
2013-2-28,59.5,49.4,45.7,41.2,35.6,33.6,73,59,46,30.17,30.08,7,3,13,0.01